createdAt,value
2018-04-02T00:00:34.285Z,0.00
2018-04-02T00:01:34.305Z,0.00
2018-04-02T00:02:34.317Z,0.00
2018-04-02T00:03:34.331Z,0.00
2018-04-02T00:04:34.350Z,0.00
2018-04-02T00:05:34.391Z,0.00
2018-04-02T00:06:34.380Z,0.00
2018-04-02T00:07:34.404Z,0.00
2018-04-02T00:08:34.411Z,0.00
2018-04-02T00:09:34.432Z,0.00
2018-04-02T00:10:34.445Z,0.00
2018-04-02T00:11:34.463Z,0.00
2018-04-02T00:12:34.475Z,0.00
2018-04-02T00:13:34.490Z,0.00
2018-04-02T00:14:34.510Z,0.00
2018-04-02T00:15:34.523Z,0.00
2018-04-02T00:16:34.540Z,0.00
2018-04-02T00:17:34.563Z,0.00
2018-04-02T00:18:34.576Z,0.00
2018-04-02T00:19:34.590Z,0.00
2018-04-02T00:20:34.604Z,0.00
2018-04-02T00:21:34.625Z,0.00
2018-04-02T00:22:34.645Z,0.00
2018-04-02T00:23:34.654Z,0.00
2018-04-02T00:24:34.670Z,0.00
2018-04-02T00:25:34.690Z,0.00
2018-04-02T00:26:34.704Z,0.00
2018-04-02T00:27:34.727Z,0.00
2018-04-02T00:28:34.740Z,0.00
2018-04-02T00:29:34.749Z,0.00
2018-04-02T00:30:34.770Z,0.00
2018-04-02T00:31:34.789Z,0.00
2018-04-02T00:32:34.800Z,0.00
2018-04-02T00:33:34.819Z,0.00
2018-04-02T00:34:34.834Z,0.00
2018-04-02T00:35:34.848Z,0.00
2018-04-02T00:36:34.867Z,0.00
2018-04-02T00:37:34.883Z,0.00
2018-04-02T00:38:34.898Z,0.00
2018-04-02T00:39:34.914Z,0.00
2018-04-02T00:40:34.931Z,0.00
2018-04-02T00:41:34.944Z,0.00
2018-04-02T00:42:34.963Z,0.00
2018-04-02T00:43:35.027Z,0.00
2018-04-02T00:44:34.993Z,0.00
2018-04-02T00:45:35.048Z,0.00
2018-04-02T00:46:35.032Z,0.00
2018-04-02T00:47:35.038Z,0.00
2018-04-02T00:48:35.062Z,0.00
2018-04-02T00:49:35.080Z,0.00
2018-04-02T00:50:35.088Z,0.00
2018-04-02T00:51:35.108Z,0.00
2018-04-02T00:52:35.121Z,0.00
2018-04-02T00:53:35.138Z,0.00
2018-04-02T00:54:35.158Z,0.00
2018-04-02T00:55:35.178Z,0.00
2018-04-02T00:56:35.188Z,0.00
2018-04-02T00:57:35.202Z,0.00
2018-04-02T00:58:35.222Z,0.00
2018-04-02T00:59:35.238Z,0.00
2018-04-02T01:00:35.252Z,0.00
2018-04-02T01:01:35.271Z,0.00
2018-04-02T01:02:35.285Z,0.00
2018-04-02T01:03:35.301Z,0.00
2018-04-02T01:04:35.319Z,0.00
2018-04-02T01:05:35.332Z,0.00
2018-04-02T01:06:35.371Z,0.00
2018-04-02T01:07:35.362Z,0.00
2018-04-02T01:08:35.382Z,0.00
2018-04-02T01:09:35.397Z,0.00
2018-04-02T01:10:35.412Z,0.00
2018-04-02T01:11:35.427Z,0.00
2018-04-02T01:12:35.447Z,0.00
2018-04-02T01:13:35.462Z,0.00
2018-04-02T01:14:35.477Z,0.00
2018-04-02T01:15:35.496Z,0.00
2018-04-02T01:16:35.504Z,0.00
2018-04-02T01:17:35.527Z,0.00
2018-04-02T01:18:35.544Z,0.00
2018-04-02T01:19:35.551Z,0.00
2018-04-02T01:20:35.585Z,0.00
2018-04-02T01:21:35.587Z,0.00
2018-04-02T01:22:35.606Z,0.00
2018-04-02T01:23:35.624Z,0.00
2018-04-02T01:24:35.641Z,0.00
2018-04-02T01:25:35.651Z,0.00
2018-04-02T01:26:35.668Z,0.00
2018-04-02T01:27:35.686Z,0.00
2018-04-02T01:28:35.700Z,0.00
2018-04-02T01:29:35.716Z,0.00
2018-04-02T01:30:35.733Z,0.00
2018-04-02T01:31:35.747Z,0.00
2018-04-02T01:32:35.776Z,0.00
2018-04-02T01:33:35.783Z,0.00
2018-04-02T01:34:35.796Z,0.00
2018-04-02T01:35:35.810Z,0.00
2018-04-02T01:36:35.831Z,0.00
2018-04-02T01:37:35.847Z,0.00
2018-04-02T01:38:35.869Z,0.00
2018-04-02T01:39:35.876Z,0.00
2018-04-02T01:40:35.898Z,0.00
2018-04-02T01:41:35.911Z,0.00
2018-04-02T01:42:35.926Z,0.00
2018-04-02T01:43:35.940Z,0.00
2018-04-02T01:44:35.954Z,0.00
2018-04-02T01:45:35.979Z,0.00
2018-04-02T01:46:35.991Z,0.00
2018-04-02T01:47:36.005Z,0.00
2018-04-02T01:48:36.020Z,0.00
2018-04-02T01:49:36.045Z,0.00
2018-04-02T01:50:36.055Z,0.00
2018-04-02T01:51:36.071Z,0.00
2018-04-02T01:52:36.090Z,0.00
2018-04-02T01:53:36.100Z,0.00
2018-04-02T01:54:36.119Z,0.00
2018-04-02T01:55:36.133Z,0.00
2018-04-02T01:56:36.150Z,0.00
2018-04-02T01:57:36.172Z,0.00
2018-04-02T01:58:36.193Z,0.00
2018-04-02T01:59:36.204Z,0.00
2018-04-02T02:00:36.215Z,0.00
2018-04-02T02:01:36.228Z,0.00
2018-04-02T02:02:36.252Z,0.00
2018-04-02T02:03:36.264Z,0.00
2018-04-02T02:04:36.278Z,0.00
2018-04-02T02:05:36.302Z,0.00
2018-04-02T02:06:36.314Z,0.00
2018-04-02T02:07:36.324Z,0.00
2018-04-02T02:08:36.343Z,0.00
2018-04-02T02:09:36.358Z,0.00
2018-04-02T02:10:36.374Z,0.00
2018-04-02T02:11:36.391Z,0.00
2018-04-02T02:12:36.408Z,0.00
2018-04-02T02:13:36.423Z,0.00
2018-04-02T02:14:36.438Z,0.00
2018-04-02T02:15:36.463Z,0.00
2018-04-02T02:16:36.478Z,0.00
2018-04-02T02:17:36.487Z,0.00
2018-04-02T02:18:36.503Z,0.00
2018-04-02T02:19:36.518Z,0.00
2018-04-02T02:20:36.534Z,0.00
2018-04-02T02:21:36.556Z,0.00
2018-04-02T02:22:36.571Z,0.00
2018-04-02T02:23:36.582Z,0.00
2018-04-02T02:24:36.601Z,0.00
2018-04-02T02:25:36.620Z,0.00
2018-04-02T02:26:36.634Z,0.00
2018-04-02T02:27:36.647Z,0.00
2018-04-02T02:28:36.662Z,0.00
2018-04-02T02:29:36.677Z,0.00
2018-04-02T02:30:36.701Z,0.00
2018-04-02T02:31:36.716Z,0.00
2018-04-02T02:32:36.731Z,0.00
2018-04-02T02:33:36.753Z,0.00
2018-04-02T02:34:36.756Z,0.00
2018-04-02T02:35:36.776Z,0.00
2018-04-02T02:36:36.801Z,0.00
2018-04-02T02:37:36.816Z,0.00
2018-04-02T02:38:36.828Z,0.00
2018-04-02T02:39:36.842Z,0.00
2018-04-02T02:40:36.858Z,0.00
2018-04-02T02:41:36.872Z,0.00
2018-04-02T02:42:36.886Z,0.00
2018-04-02T02:43:36.902Z,0.00
2018-04-02T02:44:36.921Z,0.00
2018-04-02T02:45:36.940Z,0.00
2018-04-02T02:46:36.952Z,0.00
2018-04-02T02:47:36.966Z,0.00
2018-04-02T02:48:36.984Z,0.00
2018-04-02T02:49:36.996Z,0.00
2018-04-02T02:50:37.019Z,0.00
2018-04-02T02:51:37.041Z,0.00
2018-04-02T02:52:37.046Z,0.00
2018-04-02T02:53:37.060Z,0.00
2018-04-02T02:54:37.081Z,0.00
2018-04-02T02:55:37.092Z,0.00
2018-04-02T02:56:37.111Z,0.00
2018-04-02T02:57:37.126Z,0.00
2018-04-02T02:58:37.141Z,0.00
2018-04-02T02:59:37.156Z,0.00
2018-04-02T03:00:37.170Z,0.00
2018-04-02T03:01:37.196Z,0.00
2018-04-02T03:02:37.211Z,0.00
2018-04-02T03:03:37.224Z,0.00
2018-04-02T03:04:37.240Z,0.00
2018-04-02T03:05:37.256Z,0.00
2018-04-02T03:06:37.271Z,0.00
2018-04-02T03:07:37.285Z,0.00
2018-04-02T03:08:37.304Z,0.00
2018-04-02T03:09:37.316Z,0.00
2018-04-02T03:10:37.338Z,0.00
2018-04-02T03:11:37.353Z,0.00
2018-04-02T03:12:37.370Z,0.00
2018-04-02T03:13:37.383Z,0.00
2018-04-02T03:14:37.399Z,0.00
2018-04-02T03:15:37.416Z,0.00
2018-04-02T03:16:37.433Z,0.00
2018-04-02T03:17:37.444Z,0.00
2018-04-02T03:18:37.463Z,0.00
2018-04-02T03:19:37.487Z,0.00
2018-04-02T03:20:37.491Z,0.00
2018-04-02T03:21:37.513Z,0.00
2018-04-02T03:22:37.528Z,0.00
2018-04-02T03:23:37.543Z,0.00
2018-04-02T03:24:37.560Z,0.00
2018-04-02T03:25:37.576Z,0.00
2018-04-02T03:26:37.588Z,0.00
2018-04-02T03:27:37.611Z,0.00
2018-04-02T03:28:37.622Z,0.00
2018-04-02T03:29:37.643Z,0.00
2018-04-02T03:30:37.658Z,0.00
2018-04-02T03:31:37.669Z,0.00
2018-04-02T03:32:37.687Z,0.00
2018-04-02T03:33:37.703Z,0.00
2018-04-02T03:34:37.722Z,0.00
2018-04-02T03:35:37.730Z,0.00
2018-04-02T03:36:37.747Z,0.00
2018-04-02T03:37:37.767Z,0.00
2018-04-02T03:38:37.782Z,0.00
2018-04-02T03:39:37.797Z,0.00
2018-04-02T03:40:37.816Z,0.00
2018-04-02T03:41:37.832Z,0.00
2018-04-02T03:42:37.842Z,0.00
2018-04-02T03:43:37.861Z,0.00
2018-04-02T03:44:37.880Z,0.00
2018-04-02T03:45:37.895Z,0.00
2018-04-02T03:46:37.908Z,0.00
2018-04-02T03:47:37.922Z,0.00
2018-04-02T03:48:37.938Z,0.00
2018-04-02T03:49:37.961Z,0.00
2018-04-02T03:50:37.980Z,0.00
2018-04-02T03:51:37.986Z,0.00
2018-04-02T03:52:38.001Z,0.00
2018-04-02T03:53:38.022Z,0.00
2018-04-02T03:54:38.041Z,0.00
2018-04-02T03:55:38.051Z,0.00
2018-04-02T03:56:38.068Z,0.00
2018-04-02T03:57:38.091Z,0.00
2018-04-02T03:58:38.096Z,0.00
2018-04-02T03:59:38.123Z,0.00
2018-04-02T04:00:38.153Z,0.00
2018-04-02T04:01:38.153Z,0.00
2018-04-02T04:02:38.169Z,0.00
2018-04-02T04:03:38.183Z,0.00
2018-04-02T04:04:38.198Z,0.00
2018-04-02T04:05:38.214Z,0.00
2018-04-02T04:06:38.227Z,0.00
2018-04-02T04:07:38.241Z,0.00
2018-04-02T04:08:38.259Z,0.00
2018-04-02T04:09:38.278Z,0.00
2018-04-02T04:10:38.294Z,0.00
2018-04-02T04:11:38.307Z,0.00
2018-04-02T04:12:38.326Z,0.00
2018-04-02T04:13:38.339Z,0.00
2018-04-02T04:14:38.356Z,0.00
2018-04-02T04:15:38.372Z,0.00
2018-04-02T04:16:38.389Z,0.00
2018-04-02T04:17:38.411Z,0.00
2018-04-02T04:18:38.416Z,0.00
2018-04-02T04:19:38.436Z,0.00
2018-04-02T04:20:38.445Z,0.00
2018-04-02T04:21:38.467Z,0.00
2018-04-02T04:22:38.484Z,0.00
2018-04-02T04:23:38.497Z,0.00
2018-04-02T04:24:38.512Z,0.00
2018-04-02T04:25:38.529Z,0.00
2018-04-02T04:26:38.542Z,0.00
2018-04-02T04:27:38.565Z,0.00
2018-04-02T04:28:38.574Z,0.00
2018-04-02T04:29:38.589Z,0.00
2018-04-02T04:30:38.606Z,0.00
2018-04-02T04:31:38.630Z,0.00
2018-04-02T04:32:38.644Z,0.00
2018-04-02T04:33:38.658Z,0.00
2018-04-02T04:34:38.674Z,0.00
2018-04-02T04:35:38.684Z,0.00
2018-04-02T04:36:38.705Z,0.00
2018-04-02T04:37:38.719Z,0.00
2018-04-02T04:38:38.738Z,0.00
2018-04-02T04:39:38.762Z,0.00
2018-04-02T04:40:38.764Z,5.63
2018-04-02T04:41:38.784Z,5.63
2018-04-02T04:42:38.795Z,5.63
2018-04-02T04:43:38.814Z,5.63
2018-04-02T04:44:38.829Z,5.63
2018-04-02T04:45:38.845Z,5.63
2018-04-02T04:46:38.859Z,11.25
2018-04-02T04:47:38.873Z,11.25
2018-04-02T04:48:38.892Z,11.25
2018-04-02T04:49:38.909Z,11.25
2018-04-02T04:50:38.923Z,16.88
2018-04-02T04:51:38.943Z,16.88
2018-04-02T04:52:38.962Z,16.88
2018-04-02T04:53:38.983Z,16.88
2018-04-02T04:54:38.993Z,22.50
2018-04-02T04:55:39.007Z,22.50
2018-04-02T04:56:39.028Z,22.50
2018-04-02T04:57:39.052Z,28.13
2018-04-02T04:58:39.056Z,28.13
2018-04-02T04:59:39.068Z,33.75
2018-04-02T05:00:39.088Z,33.75
2018-04-02T05:01:39.111Z,39.38
2018-04-02T05:02:39.123Z,39.38
2018-04-02T05:03:39.141Z,45.00
2018-04-02T05:04:39.149Z,45.00
2018-04-02T05:05:39.161Z,50.63
2018-04-02T05:06:39.183Z,50.63
2018-04-02T05:07:39.198Z,56.25
2018-04-02T05:08:39.213Z,56.25
2018-04-02T05:09:39.228Z,61.88
2018-04-02T05:10:39.244Z,61.88
2018-04-02T05:11:39.262Z,61.88
2018-04-02T05:12:39.277Z,67.50
2018-04-02T05:13:39.296Z,67.50
2018-04-02T05:14:39.311Z,73.13
2018-04-02T05:15:39.330Z,73.13
2018-04-02T05:16:39.339Z,78.75
2018-04-02T05:17:39.380Z,78.75
2018-04-02T05:18:39.376Z,84.38
2018-04-02T05:19:39.392Z,84.38
2018-04-02T05:20:39.407Z,90.00
2018-04-02T05:21:39.423Z,90.00
2018-04-02T05:22:39.444Z,90.00
2018-04-02T05:23:39.453Z,95.63
2018-04-02T05:24:39.478Z,95.63
2018-04-02T05:25:39.486Z,95.63
2018-04-02T05:26:39.503Z,101.25
2018-04-02T05:27:39.522Z,101.25
2018-04-02T05:28:39.541Z,101.25
2018-04-02T05:29:39.552Z,106.88
2018-04-02T05:30:39.567Z,106.88
2018-04-02T05:31:39.586Z,112.50
2018-04-02T05:32:39.601Z,112.50
2018-04-02T05:33:39.626Z,118.13
2018-04-02T05:34:39.638Z,118.13
2018-04-02T05:35:39.649Z,118.13
2018-04-02T05:36:39.665Z,123.75
2018-04-02T05:37:39.682Z,123.75
2018-04-02T05:38:39.701Z,129.38
2018-04-02T05:39:39.767Z,129.38
2018-04-02T05:40:39.732Z,135.00
2018-04-02T05:41:39.751Z,135.00
2018-04-02T05:42:39.768Z,140.63
2018-04-02T05:43:39.786Z,140.63
2018-04-02T05:44:39.795Z,146.25
2018-04-02T05:45:39.814Z,146.25
2018-04-02T05:46:39.831Z,151.88
2018-04-02T05:47:39.845Z,151.88
2018-04-02T05:48:39.859Z,151.88
2018-04-02T05:49:39.879Z,157.50
2018-04-02T05:50:39.896Z,157.50
2018-04-02T05:51:39.914Z,163.13
2018-04-02T05:52:39.928Z,163.13
2018-04-02T05:53:39.940Z,163.13
2018-04-02T05:54:39.965Z,163.13
2018-04-02T05:55:39.974Z,163.13
2018-04-02T05:56:39.993Z,168.75
2018-04-02T05:57:40.010Z,168.75
2018-04-02T05:58:40.029Z,168.75
2018-04-02T05:59:40.042Z,174.38
2018-04-02T06:00:40.061Z,174.38
2018-04-02T06:01:40.070Z,174.38
2018-04-02T06:02:40.093Z,180.00
2018-04-02T06:03:40.103Z,180.00
2018-04-02T06:04:40.128Z,185.63
2018-04-02T06:05:40.142Z,185.63
2018-04-02T06:06:40.153Z,191.25
2018-04-02T06:07:40.169Z,191.25
2018-04-02T06:08:40.184Z,196.88
2018-04-02T06:09:40.201Z,196.88
2018-04-02T06:10:40.219Z,202.50
2018-04-02T06:11:40.256Z,202.50
2018-04-02T06:12:40.248Z,208.13
2018-04-02T06:13:40.265Z,208.13
2018-04-02T06:14:40.284Z,213.75
2018-04-02T06:15:40.299Z,213.75
2018-04-02T06:16:40.371Z,213.75
2018-04-02T06:17:40.337Z,213.75
2018-04-02T06:18:40.354Z,213.75
2018-04-02T06:19:40.372Z,225.00
2018-04-02T06:20:40.388Z,219.38
2018-04-02T06:21:40.402Z,219.38
2018-04-02T06:22:40.423Z,219.38
2018-04-02T06:23:40.430Z,225.00
2018-04-02T06:24:40.449Z,225.00
2018-04-02T06:25:40.468Z,225.00
2018-04-02T06:26:40.491Z,230.63
2018-04-02T06:27:40.501Z,230.63
2018-04-02T06:28:40.517Z,236.25
2018-04-02T06:29:40.533Z,241.88
2018-04-02T06:30:40.555Z,241.88
2018-04-02T06:31:40.630Z,247.50
2018-04-02T06:32:40.587Z,253.13
2018-04-02T06:33:40.601Z,253.13
2018-04-02T06:34:40.620Z,258.75
2018-04-02T06:35:40.633Z,258.75
2018-04-02T06:36:40.648Z,264.38
2018-04-02T06:37:40.671Z,264.38
2018-04-02T06:38:40.685Z,264.38
2018-04-02T06:39:40.700Z,264.38
2018-04-02T06:40:40.720Z,264.38
2018-04-02T06:41:40.741Z,264.38
2018-04-02T06:42:40.752Z,270.00
2018-04-02T06:43:40.774Z,270.00
2018-04-02T06:44:40.785Z,275.63
2018-04-02T06:45:40.805Z,281.25
2018-04-02T06:46:40.821Z,286.88
2018-04-02T06:47:40.833Z,292.50
2018-04-02T06:48:40.857Z,298.13
2018-04-02T06:49:40.868Z,303.75
2018-04-02T06:50:40.882Z,303.75
2018-04-02T06:51:40.908Z,303.75
2018-04-02T06:52:40.921Z,303.75
2018-04-02T06:53:40.937Z,303.75
2018-04-02T06:54:40.955Z,303.75
2018-04-02T06:55:40.971Z,303.75
2018-04-02T06:56:40.986Z,309.38
2018-04-02T06:57:41.001Z,303.75
2018-04-02T06:58:41.019Z,303.75
2018-04-02T06:59:41.040Z,303.75
2018-04-02T07:00:41.051Z,303.75
2018-04-02T07:01:41.070Z,315.00
2018-04-02T07:02:41.087Z,315.00
2018-04-02T07:03:41.110Z,320.63
2018-04-02T07:04:41.120Z,320.63
2018-04-02T07:05:41.144Z,320.63
2018-04-02T07:06:41.156Z,320.63
2018-04-02T07:07:41.171Z,320.63
2018-04-02T07:08:41.190Z,331.88
2018-04-02T07:09:41.206Z,326.25
2018-04-02T07:10:41.225Z,331.88
2018-04-02T07:11:41.260Z,331.88
2018-04-02T07:12:41.314Z,331.88
2018-04-02T07:13:41.276Z,331.88
2018-04-02T07:14:41.296Z,331.88
2018-04-02T07:15:41.310Z,326.25
2018-04-02T07:16:41.331Z,326.25
2018-04-02T07:17:41.351Z,320.63
2018-04-02T07:18:41.367Z,315.00
2018-04-02T07:19:41.387Z,303.75
2018-04-02T07:20:41.397Z,303.75
2018-04-02T07:21:41.416Z,292.50
2018-04-02T07:22:41.439Z,286.88
2018-04-02T07:23:41.454Z,275.63
2018-04-02T07:24:41.469Z,270.00
2018-04-02T07:25:41.493Z,264.38
2018-04-02T07:26:41.515Z,258.75
2018-04-02T07:27:41.519Z,253.13
2018-04-02T07:28:41.537Z,264.38
2018-04-02T07:29:41.555Z,264.38
2018-04-02T07:30:41.574Z,270.00
2018-04-02T07:31:41.592Z,275.63
2018-04-02T07:32:41.606Z,275.63
2018-04-02T07:33:41.623Z,275.63
2018-04-02T07:34:41.645Z,281.25
2018-04-02T07:35:41.662Z,270.00
2018-04-02T07:36:41.680Z,264.38
2018-04-02T07:37:41.697Z,270.00
2018-04-02T07:38:41.715Z,281.25
2018-04-02T07:39:41.731Z,286.88
2018-04-02T07:40:41.746Z,292.50
2018-04-02T07:41:41.771Z,292.50
2018-04-02T07:42:41.785Z,292.50
2018-04-02T07:43:41.804Z,292.50
2018-04-02T07:44:41.821Z,292.50
2018-04-02T07:45:41.837Z,292.50
2018-04-02T07:46:41.857Z,292.50
2018-04-02T07:47:41.875Z,298.13
2018-04-02T07:48:41.891Z,303.75
2018-04-02T07:49:41.904Z,309.38
2018-04-02T07:50:42.049Z,303.75
2018-04-02T07:51:41.942Z,303.75
2018-04-02T07:52:41.958Z,309.38
2018-04-02T07:53:41.984Z,320.63
2018-04-02T07:54:42.005Z,315.00
2018-04-02T07:55:42.024Z,315.00
2018-04-02T07:56:42.029Z,315.00
2018-04-02T07:57:42.043Z,320.63
2018-04-02T07:58:42.061Z,320.63
2018-04-02T07:59:42.089Z,326.25
2018-04-02T08:00:42.098Z,320.63
2018-04-02T08:01:42.120Z,315.00
2018-04-02T08:02:42.177Z,315.00
2018-04-02T08:03:42.156Z,315.00
2018-04-02T08:04:42.168Z,315.00
2018-04-02T08:05:42.194Z,320.63
2018-04-02T08:06:42.207Z,315.00
2018-04-02T08:07:42.228Z,320.63
2018-04-02T08:08:42.290Z,320.63
2018-04-02T08:09:42.271Z,326.25
2018-04-02T08:10:42.277Z,337.50
2018-04-02T08:11:42.296Z,360.00
2018-04-02T08:12:42.312Z,388.13
2018-04-02T08:13:42.331Z,382.50
2018-04-02T08:14:42.356Z,365.63
2018-04-02T08:15:42.362Z,343.13
2018-04-02T08:16:42.382Z,337.50
2018-04-02T08:17:42.402Z,337.50
2018-04-02T08:18:42.417Z,337.50
2018-04-02T08:19:42.437Z,337.50
2018-04-02T08:20:42.453Z,337.50
2018-04-02T08:21:42.474Z,337.50
2018-04-02T08:22:42.485Z,337.50
2018-04-02T08:23:42.508Z,337.50
2018-04-02T08:24:42.545Z,337.50
2018-04-02T08:25:42.545Z,354.38
2018-04-02T08:26:42.591Z,354.38
2018-04-02T08:27:42.578Z,371.25
2018-04-02T08:28:42.600Z,388.13
2018-04-02T08:29:42.619Z,410.63
2018-04-02T08:30:42.646Z,433.13
2018-04-02T08:31:42.651Z,450.00
2018-04-02T08:32:42.684Z,433.13
2018-04-02T08:33:42.686Z,438.75
2018-04-02T08:34:42.714Z,472.50
2018-04-02T08:35:42.726Z,478.13
2018-04-02T08:36:42.751Z,472.50
2018-04-02T08:37:42.761Z,483.75
2018-04-02T08:38:42.833Z,523.13
2018-04-02T08:39:42.801Z,551.25
2018-04-02T08:40:42.815Z,573.75
2018-04-02T08:41:42.838Z,585.00
2018-04-02T08:42:42.853Z,573.75
2018-04-02T08:43:42.868Z,562.50
2018-04-02T08:44:42.893Z,556.88
2018-04-02T08:45:42.916Z,540.00
2018-04-02T08:46:42.937Z,528.75
2018-04-02T08:47:42.954Z,511.88
2018-04-02T08:48:42.981Z,500.63
2018-04-02T08:49:42.984Z,472.50
2018-04-02T08:50:43.007Z,416.25
2018-04-02T08:51:43.023Z,405.00
2018-04-02T08:52:43.040Z,410.63
2018-04-02T08:53:43.062Z,416.25
2018-04-02T08:54:43.080Z,416.25
2018-04-02T08:55:43.098Z,421.88
2018-04-02T08:56:43.116Z,444.38
2018-04-02T08:57:43.142Z,461.25
2018-04-02T08:58:43.158Z,495.00
2018-04-02T08:59:43.171Z,534.38
2018-04-02T09:00:43.221Z,573.75
2018-04-02T09:01:43.212Z,585.00
2018-04-02T09:02:43.229Z,596.25
2018-04-02T09:03:43.250Z,601.88
2018-04-02T09:04:43.272Z,618.75
2018-04-02T09:05:43.285Z,635.63
2018-04-02T09:06:43.305Z,607.50
2018-04-02T09:07:43.322Z,568.13
2018-04-02T09:08:43.340Z,511.88
2018-04-02T09:09:43.361Z,461.25
2018-04-02T09:10:43.378Z,427.50
2018-04-02T09:11:43.400Z,438.75
2018-04-02T09:12:43.422Z,472.50
2018-04-02T09:13:43.441Z,500.63
2018-04-02T09:14:43.455Z,478.13
2018-04-02T09:15:43.474Z,472.50
2018-04-02T09:16:43.503Z,511.88
2018-04-02T09:17:43.516Z,534.38
2018-04-02T09:18:43.538Z,495.00
2018-04-02T09:19:43.558Z,472.50
2018-04-02T09:20:43.575Z,461.25
2018-04-02T09:21:43.600Z,455.63
2018-04-02T09:22:43.614Z,450.00
2018-04-02T09:23:43.631Z,427.50
2018-04-02T09:24:43.679Z,421.88
2018-04-02T09:25:43.669Z,438.75
2018-04-02T09:26:43.689Z,427.50
2018-04-02T09:27:43.708Z,405.00
2018-04-02T09:28:43.728Z,393.75
2018-04-02T09:29:43.754Z,399.38
2018-04-02T09:30:43.764Z,405.00
2018-04-02T09:31:43.787Z,405.00
2018-04-02T09:32:43.806Z,410.63
2018-04-02T09:33:43.828Z,421.88
2018-04-02T09:34:43.839Z,427.50
2018-04-02T09:35:43.859Z,444.38
2018-04-02T09:36:43.881Z,455.63
2018-04-02T09:37:43.902Z,478.13
2018-04-02T09:38:43.923Z,461.25
2018-04-02T09:39:43.933Z,450.00
2018-04-02T09:40:43.956Z,455.63
2018-04-02T09:41:43.978Z,450.00
2018-04-02T09:42:43.995Z,450.00
2018-04-02T09:43:44.014Z,444.38
2018-04-02T09:44:44.029Z,461.25
2018-04-02T09:45:44.047Z,455.63
2018-04-02T09:46:44.068Z,455.63
2018-04-02T09:47:44.135Z,455.63
2018-04-02T09:48:44.107Z,455.63
2018-04-02T09:49:44.129Z,450.00
2018-04-02T09:50:44.151Z,444.38
2018-04-02T09:51:44.167Z,450.00
2018-04-02T09:52:44.182Z,450.00
2018-04-02T09:53:44.203Z,444.38
2018-04-02T09:54:44.243Z,438.75
2018-04-02T09:55:44.238Z,438.75
2018-04-02T09:56:44.267Z,438.75
2018-04-02T09:57:44.278Z,433.13
2018-04-02T09:58:44.297Z,433.13
2018-04-02T09:59:44.321Z,433.13
2018-04-02T10:00:44.337Z,433.13
2018-04-02T10:01:44.359Z,427.50
2018-04-02T10:02:44.372Z,427.50
2018-04-02T10:03:44.391Z,433.13
2018-04-02T10:04:44.568Z,433.13
2018-04-02T10:05:44.431Z,438.75
2018-04-02T10:06:44.451Z,438.75
2018-04-02T10:07:44.470Z,433.13
2018-04-02T10:08:44.492Z,433.13
2018-04-02T10:09:44.526Z,427.50
2018-04-02T10:10:44.528Z,416.25
2018-04-02T10:11:44.547Z,416.25
2018-04-02T10:12:44.566Z,410.63
2018-04-02T10:13:44.591Z,410.63
2018-04-02T10:14:44.605Z,410.63
2018-04-02T10:15:44.621Z,416.25
2018-04-02T10:16:44.646Z,421.88
2018-04-02T10:17:44.661Z,427.50
2018-04-02T10:18:44.679Z,444.38
2018-04-02T10:19:44.697Z,450.00
2018-04-02T10:20:44.766Z,455.63
2018-04-02T10:21:44.783Z,466.88
2018-04-02T10:22:44.757Z,478.13
2018-04-02T10:23:44.782Z,489.38
2018-04-02T10:24:44.801Z,483.75
2018-04-02T10:25:44.814Z,483.75
2018-04-02T10:26:44.834Z,489.38
2018-04-02T10:27:44.850Z,495.00
2018-04-02T10:28:44.876Z,500.63
2018-04-02T10:29:44.963Z,506.25
2018-04-02T10:30:44.937Z,506.25
2018-04-02T10:31:44.929Z,500.63
2018-04-02T10:32:44.945Z,506.25
2018-04-02T10:33:44.966Z,495.00
2018-04-02T10:34:44.996Z,495.00
2018-04-02T10:35:45.005Z,495.00
2018-04-02T10:36:45.025Z,500.63
2018-04-02T10:37:45.042Z,500.63
2018-04-02T10:38:45.074Z,506.25
2018-04-02T10:39:45.085Z,506.25
2018-04-02T10:40:45.100Z,523.13
2018-04-02T10:41:45.122Z,545.63
2018-04-02T10:42:45.140Z,585.00
2018-04-02T10:43:45.175Z,607.50
2018-04-02T10:44:45.179Z,641.25
2018-04-02T10:45:45.200Z,675.00
2018-04-02T10:46:45.226Z,703.13
2018-04-02T10:47:45.244Z,742.50
2018-04-02T10:48:45.277Z,770.63
2018-04-02T10:49:45.278Z,798.75
2018-04-02T10:50:45.299Z,843.75
2018-04-02T10:51:45.319Z,877.50
2018-04-02T10:52:45.344Z,922.50
2018-04-02T10:53:45.361Z,956.25
2018-04-02T10:54:45.378Z,1012.50
2018-04-02T10:55:45.400Z,1080.00
2018-04-02T10:56:45.422Z,1136.25
2018-04-02T10:57:45.441Z,1220.63
2018-04-02T10:58:45.466Z,1310.63
2018-04-02T10:59:45.525Z,1440.00
2018-04-02T11:00:45.506Z,1580.63
2018-04-02T11:01:45.524Z,1951.88
2018-04-02T11:02:45.544Z,2458.13
2018-04-02T11:03:45.569Z,2520.00
2018-04-02T11:04:45.585Z,2525.63
2018-04-02T11:05:45.660Z,2570.63
2018-04-02T11:06:45.628Z,2643.75
2018-04-02T11:07:45.648Z,2626.88
2018-04-02T11:08:45.683Z,2649.38
2018-04-02T11:09:45.711Z,2660.63
2018-04-02T11:10:45.728Z,2683.13
2018-04-02T11:11:45.743Z,2711.25
2018-04-02T11:12:45.779Z,2739.38
2018-04-02T11:13:45.793Z,2773.13
2018-04-02T11:14:45.818Z,2829.38
2018-04-02T11:15:45.857Z,2823.75
2018-04-02T11:16:45.872Z,2891.25
2018-04-02T11:17:45.904Z,2930.63
2018-04-02T11:18:45.917Z,2930.63
2018-04-02T11:19:45.951Z,3026.25
2018-04-02T11:20:45.975Z,3026.25
2018-04-02T11:21:46.003Z,2773.13
2018-04-02T11:22:46.034Z,2514.38
2018-04-02T11:23:46.106Z,2503.13
2018-04-02T11:24:46.083Z,2666.25
2018-04-02T11:25:46.116Z,2773.13
2018-04-02T11:26:46.142Z,2784.38
2018-04-02T11:27:46.177Z,2812.50
2018-04-02T11:28:46.201Z,2857.50
2018-04-02T11:29:46.229Z,2829.38
2018-04-02T11:30:46.258Z,2835.00
2018-04-02T11:31:46.287Z,2784.38
2018-04-02T11:32:46.314Z,2761.88
2018-04-02T11:33:46.346Z,2722.50
2018-04-02T11:34:46.373Z,2880.00
2018-04-02T11:35:46.454Z,2992.50
2018-04-02T11:36:46.436Z,3076.88
2018-04-02T11:37:46.461Z,3172.50
2018-04-02T11:38:46.499Z,3296.25
2018-04-02T11:39:46.551Z,3442.50
2018-04-02T11:40:46.551Z,3403.13
2018-04-02T11:41:46.587Z,3510.00
2018-04-02T11:42:46.616Z,3577.50
2018-04-02T11:43:46.646Z,3628.13
2018-04-02T11:44:46.676Z,3622.50
2018-04-02T11:45:46.710Z,3532.50
2018-04-02T11:46:46.737Z,3695.63
2018-04-02T11:47:46.767Z,3706.88
2018-04-02T11:48:46.816Z,3785.63
2018-04-02T11:49:46.838Z,3802.50
2018-04-02T11:50:46.862Z,3864.38
2018-04-02T11:51:46.898Z,3841.88
2018-04-02T11:52:46.926Z,3909.38
2018-04-02T11:53:46.956Z,3993.75
2018-04-02T11:54:46.996Z,3988.13
2018-04-02T11:55:47.038Z,4044.38
2018-04-02T11:56:47.060Z,4016.25
2018-04-02T11:57:47.090Z,4151.25
2018-04-02T11:58:47.124Z,4376.25
2018-04-02T11:59:47.150Z,4241.25
2018-04-02T12:00:47.185Z,3408.75
2018-04-02T12:01:47.228Z,4213.13
2018-04-02T12:02:47.261Z,4590.00
2018-04-02T12:03:47.281Z,4466.25
2018-04-02T12:04:47.323Z,4505.63
2018-04-02T12:05:47.357Z,3695.63
2018-04-02T12:06:47.390Z,2272.50
2018-04-02T12:07:47.416Z,3403.13
2018-04-02T12:08:47.455Z,4252.50
2018-04-02T12:09:47.488Z,4173.75
2018-04-02T12:10:47.522Z,4168.13
2018-04-02T12:11:47.550Z,4246.88
2018-04-02T12:12:47.590Z,4286.25
2018-04-02T12:13:47.642Z,4460.63
2018-04-02T12:14:47.657Z,2503.13
2018-04-02T12:15:47.699Z,2846.25
2018-04-02T12:16:47.720Z,3408.75
2018-04-02T12:17:47.769Z,4348.13
2018-04-02T12:18:47.790Z,4336.88
2018-04-02T12:19:47.835Z,3757.50
2018-04-02T12:20:47.862Z,2233.13
2018-04-02T12:21:47.895Z,3684.38
2018-04-02T12:22:47.935Z,4820.63
2018-04-02T12:23:47.970Z,4061.25
2018-04-02T12:24:48.001Z,3881.25
2018-04-02T12:25:48.032Z,5253.75
2018-04-02T12:26:48.069Z,3543.75
2018-04-02T12:27:48.108Z,4955.63
2018-04-02T12:28:48.140Z,3436.88
2018-04-02T12:29:48.172Z,4213.13
2018-04-02T12:30:48.211Z,3358.13
2018-04-02T12:31:48.243Z,4663.13
2018-04-02T12:32:48.274Z,4618.13
2018-04-02T12:33:48.309Z,4128.75
2018-04-02T12:34:48.345Z,4072.50
2018-04-02T12:35:48.380Z,3982.50
2018-04-02T12:36:48.414Z,4201.88
2018-04-02T12:37:48.454Z,4320.00
2018-04-02T12:38:48.499Z,4320.00
2018-04-02T12:39:48.526Z,4230.00
2018-04-02T12:40:48.558Z,4303.13
2018-04-02T12:41:48.592Z,4494.38
2018-04-02T12:42:48.625Z,4590.00
2018-04-02T12:43:48.662Z,4230.00
2018-04-02T12:44:48.701Z,2469.38